Time;durP1;ratioP1;P1;durP2;ratioP2;P2;SDS_P1;SDS_P2;PMS_P1;PMS_P2;Temp;Humidity;BMP_temperature;BMP_pressure;BME280_temperature;BME280_humidity;BME280_pressure;Samples;Min_cycle;Max_cycle;Signal;HPM_P1;HPM_P2
2022/09/30 00:01:25;;;;;;;;;22.33;19.00;;;;;;;;5056585;28;46487;-66
2022/09/30 00:03:51;;;;;;;;;23.33;19.33;;;;;;;;5053355;28;45488;-66
2022/09/30 00:06:16;;;;;;;;;18.33;17.67;;;;;;;;5055610;28;45347;-65
2022/09/30 00:08:42;;;;;;;;;23.67;22.00;;;;;;;;5056778;28;45381;-65
2022/09/30 00:11:07;;;;;;;;;19.00;16.00;;;;;;;;5060126;28;45890;-66
2022/09/30 00:13:34;;;;;;;;;23.33;19.00;;;;;;;;5059884;28;45486;-66
2022/09/30 00:16:00;;;;;;;;;23.00;18.67;;;;;;;;5060287;28;45298;-65
2022/09/30 00:18:26;;;;;;;;;18.33;17.00;;;;;;;;5060322;28;45834;-65
2022/09/30 00:20:52;;;;;;;;;24.00;23.00;;;;;;;;5058582;28;45487;-66
2022/09/30 00:23:17;;;;;;;;;24.33;20.33;;;;;;;;5060076;28;45190;-66
2022/09/30 00:25:42;;;;;;;;;17.33;17.33;;;;;;;;5059796;28;45484;-66
2022/09/30 00:28:08;;;;;;;;;21.67;18.00;;;;;;;;5060085;28;45381;-66
2022/09/30 00:30:33;;;;;;;;;22.67;19.67;;;;;;;;5059722;28;45396;-66
2022/09/30 00:32:59;;;;;;;;;22.00;18.67;;;;;;;;5059824;28;45407;-65
2022/09/30 00:35:24;;;;;;;;;21.33;20.00;;;;;;;;5060104;28;45411;-65
2022/09/30 00:37:49;;;;;;;;;25.00;21.00;;;;;;;;5059386;28;45331;-66
2022/09/30 00:40:14;;;;;;;;;20.67;20.67;;;;;;;;5058773;28;46423;-66
2022/09/30 00:42:40;;;;;;;;;21.67;21.67;;;;;;;;5059617;28;45371;-65
2022/09/30 00:45:09;;;;;;;;;19.67;19.67;;;;;;;;5059567;28;45249;-64
2022/09/30 00:47:53;;;;;;;;;22.00;20.00;;;;;;;;5059925;28;45538;-65
2022/09/30 00:50:30;;;;;;;;;24.00;20.33;;;;;;;;5059350;28;45264;-65
2022/09/30 00:53:07;;;;;;;;;27.67;21.67;;;;;;;;5059405;28;45287;-65
2022/09/30 00:55:45;;;;;;;;;24.00;22.67;;;;;;;;5058424;28;45691;-66
2022/09/30 00:58:12;;;;;;;;;21.33;20.67;;;;;;;;5059664;28;45323;-65
2022/09/30 01:00:37;;;;;;;;;26.67;23.00;;;;;;;;5059251;28;45338;-65
2022/09/30 01:03:03;;;;;;;;;25.67;22.00;;;;;;;;5059262;28;45361;-66
2022/09/30 01:05:30;;;;;;;;;14.67;13.00;;;;;;;;5059512;28;45311;-66
2022/09/30 01:07:56;;;;;;;;;27.67;24.00;;;;;;;;5059654;28;45287;-65
2022/09/30 01:10:21;;;;;;;;;30.00;25.33;;;;;;;;5059038;28;46121;-65
2022/09/30 01:12:46;;;;;;;;;25.67;23.00;;;;;;;;5058050;28;45223;-65
2022/09/30 01:15:12;;;;;;;;;31.33;25.33;;;;;;;;5059064;28;45352;-66
2022/09/30 01:17:52;;;;;;;;;37.33;34.33;;;;;;;;5059713;28;45432;-65
2022/09/30 01:20:40;;;;;;;;;28.00;24.67;;;;;;;;5057955;28;45615;-65
2022/09/30 01:23:11;;;;;;;;;25.00;22.00;;;;;;;;5053194;28;45295;-66
2022/09/30 01:25:55;;;;;;;;;25.33;21.33;;;;;;;;5051658;28;45523;-65
2022/09/30 01:28:39;;;;;;;;;29.00;26.00;;;;;;;;5045057;28;45554;-65
2022/09/30 01:31:10;;;;;;;;;33.33;29.67;;;;;;;;5057939;28;45433;-65
2022/09/30 01:33:53;;;;;;;;;23.00;20.00;;;;;;;;5046339;28;45368;-65
2022/09/30 01:36:21;;;;;;;;;29.33;25.33;;;;;;;;5038245;28;45388;-65
2022/09/30 01:38:51;;;;;;;;;26.67;26.33;;;;;;;;5038168;28;45326;-65
2022/09/30 01:41:32;;;;;;;;;30.00;26.33;;;;;;;;5037841;28;46417;-64
2022/09/30 01:44:02;;;;;;;;;28.67;26.00;;;;;;;;5042109;28;45394;-65
2022/09/30 01:46:30;;;;;;;;;28.33;25.33;;;;;;;;5055627;28;45378;-64
2022/09/30 01:48:55;;;;;;;;;26.33;21.00;;;;;;;;5058094;28;45505;-64
2022/09/30 01:51:36;;;;;;;;;29.00;23.00;;;;;;;;5048565;28;47141;-65
2022/09/30 01:54:07;;;;;;;;;30.67;27.33;;;;;;;;5038730;28;45332;-65
2022/09/30 01:56:39;;;;;;;;;28.67;24.00;;;;;;;;5058362;28;45494;-65
2022/09/30 01:59:08;;;;;;;;;26.67;24.33;;;;;;;;5056492;28;45553;-65
2022/09/30 02:01:38;;;;;;;;;27.00;20.33;;;;;;;;5058179;28;47120;-65
2022/09/30 02:04:07;;;;;;;;;27.67;25.33;;;;;;;;5058513;28;45418;-65
2022/09/30 02:06:36;;;;;;;;;28.67;26.00;;;;;;;;5058332;28;45498;-65
2022/09/30 02:09:08;;;;;;;;;30.00;25.33;;;;;;;;5058632;28;45500;-65
2022/09/30 02:11:35;;;;;;;;;30.33;25.00;;;;;;;;5058037;28;45815;-65
2022/09/30 02:14:07;;;;;;;;;31.00;25.33;;;;;;;;5056286;28;45386;-65
2022/09/30 02:16:41;;;;;;;;;28.67;25.33;;;;;;;;5058171;28;45443;-65
2022/09/30 02:19:21;;;;;;;;;30.33;25.00;;;;;;;;5058073;28;45201;-65
2022/09/30 02:21:50;;;;;;;;;32.67;27.33;;;;;;;;5057922;28;46540;-65
2022/09/30 02:24:17;;;;;;;;;24.67;22.67;;;;;;;;5057605;28;45422;-65
2022/09/30 02:26:45;;;;;;;;;32.33;27.33;;;;;;;;5058151;28;45280;-65
2022/09/30 02:29:29;;;;;;;;;22.33;21.00;;;;;;;;5058125;28;45471;-65
2022/09/30 02:31:57;;;;;;;;;28.00;23.00;;;;;;;;5055898;28;46276;-65
2022/09/30 02:34:26;;;;;;;;;28.67;23.67;;;;;;;;5057455;28;45242;-65
2022/09/30 02:37:07;;;;;;;;;30.33;23.67;;;;;;;;5057973;28;45375;-65
2022/09/30 02:39:38;;;;;;;;;26.33;23.67;;;;;;;;5057961;28;45296;-65
2022/09/30 02:42:19;;;;;;;;;30.67;23.33;;;;;;;;5057778;28;46072;-65
2022/09/30 02:44:45;;;;;;;;;22.33;22.33;;;;;;;;5057354;28;45442;-65
2022/09/30 02:47:10;;;;;;;;;31.67;27.00;;;;;;;;5057312;28;45482;-65
2022/09/30 02:49:39;;;;;;;;;28.00;25.33;;;;;;;;5056638;28;45376;-65
2022/09/30 02:52:10;;;;;;;;;27.00;23.33;;;;;;;;5057446;28;45792;-65
2022/09/30 02:54:47;;;;;;;;;26.67;23.00;;;;;;;;5057578;28;45356;-65
2022/09/30 02:57:18;;;;;;;;;31.00;26.33;;;;;;;;5057607;28;45205;-65
2022/09/30 02:59:45;;;;;;;;;26.67;26.33;;;;;;;;5057116;28;45493;-64
2022/09/30 03:02:10;;;;;;;;;26.67;24.67;;;;;;;;5057442;28;45529;-65
2022/09/30 03:04:37;;;;;;;;;26.33;24.67;;;;;;;;5055920;28;45250;-65
2022/09/30 03:07:02;;;;;;;;;34.67;27.00;;;;;;;;5057558;28;45352;-65
2022/09/30 03:09:27;;;;;;;;;24.67;21.33;;;;;;;;5057703;28;45188;-65
2022/09/30 03:11:57;;;;;;;;;28.67;25.67;;;;;;;;5056662;28;47001;-69
2022/09/30 03:14:32;;;;;;;;;26.67;23.00;;;;;;;;5057235;28;45517;-67
2022/09/30 03:17:09;;;;;;;;;24.00;23.67;;;;;;;;5057259;28;45430;-71
2022/09/30 03:19:46;;;;;;;;;27.33;23.67;;;;;;;;5056121;28;45847;-68
2022/09/30 03:22:30;;;;;;;;;30.33;28.33;;;;;;;;5056019;28;45355;-68
2022/09/30 03:24:58;;;;;;;;;34.00;31.00;;;;;;;;5056311;28;45399;-65
2022/09/30 03:27:42;;;;;;;;;32.00;27.67;;;;;;;;5057377;28;45418;-65
2022/09/30 03:30:13;;;;;;;;;28.67;24.67;;;;;;;;5057219;28;45248;-66
2022/09/30 03:32:49;;;;;;;;;31.00;29.00;;;;;;;;5056543;28;45402;-64
2022/09/30 03:35:18;;;;;;;;;27.67;27.67;;;;;;;;5056973;28;45527;-65
2022/09/30 03:37:44;;;;;;;;;31.00;26.33;;;;;;;;5055783;28;45269;-65
2022/09/30 03:40:45;;;;;;;;;26.00;25.00;;;;;;;;5057204;28;45476;-64
2022/09/30 03:43:12;;;;;;;;;28.67;21.67;;;;;;;;5011813;28;45383;-64
2022/09/30 03:45:42;;;;;;;;;24.33;23.67;;;;;;;;4997065;28;45420;-65
2022/09/30 03:48:09;;;;;;;;;31.00;26.33;;;;;;;;4998450;28;45487;-66
2022/09/30 03:50:35;;;;;;;;;30.67;29.33;;;;;;;;4998462;28;45498;-65
2022/09/30 03:53:01;;;;;;;;;28.00;24.00;;;;;;;;4998198;28;45539;-64
2022/09/30 03:55:27;;;;;;;;;28.00;19.67;;;;;;;;5006855;28;45536;-64
2022/09/30 03:57:53;;;;;;;;;26.00;22.67;;;;;;;;5018009;28;45192;-65
2022/09/30 04:00:19;;;;;;;;;23.67;20.67;;;;;;;;5018102;28;45455;-65
2022/09/30 04:02:45;;;;;;;;;21.67;21.67;;;;;;;;5012743;28;45373;-65
2022/09/30 04:05:10;;;;;;;;;31.00;24.00;;;;;;;;4998088;28;45397;-65
2022/09/30 04:07:35;;;;;;;;;22.00;20.00;;;;;;;;4998090;28;45335;-64
2022/09/30 04:10:01;;;;;;;;;22.67;21.67;;;;;;;;4998382;28;45440;-64
2022/09/30 04:12:26;;;;;;;;;23.67;19.00;;;;;;;;5004390;28;45601;-64
2022/09/30 04:14:51;;;;;;;;;20.00;18.00;;;;;;;;5017875;28;45397;-64
2022/09/30 04:17:17;;;;;;;;;17.00;17.00;;;;;;;;5041224;28;45496;-65
2022/09/30 04:19:42;;;;;;;;;22.00;18.33;;;;;;;;5060285;28;45359;-64
2022/09/30 04:22:08;;;;;;;;;22.00;16.67;;;;;;;;5059771;28;45782;-64
2022/09/30 04:24:33;;;;;;;;;20.67;18.67;;;;;;;;5059458;28;45450;-64
2022/09/30 04:26:58;;;;;;;;;21.67;16.67;;;;;;;;5059972;28;45307;-64
2022/09/30 04:29:24;;;;;;;;;19.00;17.67;;;;;;;;5058699;28;45292;-64
2022/09/30 04:31:49;;;;;;;;;20.00;17.00;;;;;;;;5059517;28;45437;-64
2022/09/30 04:34:14;;;;;;;;;16.67;14.33;;;;;;;;5058487;28;46036;-64
2022/09/30 04:36:39;;;;;;;;;16.67;16.00;;;;;;;;5059829;28;45265;-64
2022/09/30 04:39:04;;;;;;;;;17.00;13.00;;;;;;;;5059225;28;45208;-64
2022/09/30 04:41:31;;;;;;;;;24.00;22.67;;;;;;;;5059539;28;45656;-64
2022/09/30 04:43:56;;;;;;;;;17.67;17.00;;;;;;;;5058326;28;46776;-66
2022/09/30 04:46:22;;;;;;;;;15.67;15.67;;;;;;;;5059563;28;45193;-66
2022/09/30 04:48:47;;;;;;;;;22.67;16.00;;;;;;;;5059834;28;45217;-66
2022/09/30 04:51:16;;;;;;;;;19.33;16.67;;;;;;;;5059226;28;46279;-65
2022/09/30 04:53:42;;;;;;;;;16.00;15.33;;;;;;;;5059511;28;45434;-65
2022/09/30 04:56:07;;;;;;;;;14.67;14.67;;;;;;;;5059105;28;45265;-66
2022/09/30 04:58:32;;;;;;;;;16.33;15.00;;;;;;;;5059611;28;45374;-66
2022/09/30 05:01:01;;;;;;;;;16.67;14.00;;;;;;;;5057654;28;46349;-67
2022/09/30 05:03:27;;;;;;;;;13.33;13.33;;;;;;;;5058799;28;45459;-66
2022/09/30 05:05:52;;;;;;;;;17.00;13.33;;;;;;;;5059414;28;45429;-65
2022/09/30 05:08:17;;;;;;;;;18.33;14.00;;;;;;;;5059682;28;45285;-65
2022/09/30 05:10:42;;;;;;;;;19.00;17.00;;;;;;;;5058569;28;45602;-70
2022/09/30 05:13:08;;;;;;;;;17.00;17.00;;;;;;;;5059049;28;45320;-67
2022/09/30 05:15:33;;;;;;;;;19.00;16.00;;;;;;;;5059092;28;45584;-65
2022/09/30 05:17:58;;;;;;;;;16.00;15.67;;;;;;;;5057983;28;45484;-66
2022/09/30 05:20:24;;;;;;;;;51.67;41.00;;;;;;;;5058677;28;46455;-65
2022/09/30 05:22:53;;;;;;;;;21.67;20.33;;;;;;;;5058733;28;45524;-65
2022/09/30 05:25:18;;;;;;;;;33.67;28.67;;;;;;;;5058840;28;45509;-65
2022/09/30 05:27:47;;;;;;;;;21.67;19.00;;;;;;;;5059244;28;45326;-65
2022/09/30 05:30:12;;;;;;;;;21.00;17.00;;;;;;;;5058573;28;46824;-65
2022/09/30 05:32:38;;;;;;;;;21.33;19.00;;;;;;;;5058743;28;45433;-66
2022/09/30 05:35:04;;;;;;;;;15.67;15.00;;;;;;;;5056652;28;45412;-65
2022/09/30 05:37:29;;;;;;;;;17.00;15.33;;;;;;;;5059061;28;45457;-66
2022/09/30 05:39:54;;;;;;;;;14.33;14.33;;;;;;;;5058700;28;46428;-66
2022/09/30 05:42:19;;;;;;;;;14.00;12.33;;;;;;;;5058772;28;45254;-65
2022/09/30 05:44:45;;;;;;;;;22.00;15.33;;;;;;;;5058420;28;45485;-65
2022/09/30 05:47:10;;;;;;;;;14.33;13.33;;;;;;;;5058866;28;45522;-66
2022/09/30 05:49:36;;;;;;;;;18.67;14.33;;;;;;;;5058451;28;46289;-65
2022/09/30 05:52:01;;;;;;;;;13.00;13.00;;;;;;;;5057161;28;45539;-66
2022/09/30 05:54:26;;;;;;;;;19.67;15.00;;;;;;;;5058605;28;45480;-65
2022/09/30 05:56:51;;;;;;;;;15.00;11.00;;;;;;;;5058914;28;45367;-65
2022/09/30 05:59:17;;;;;;;;;17.67;14.67;;;;;;;;5058147;28;46536;-64
2022/09/30 06:01:42;;;;;;;;;20.00;15.67;;;;;;;;5056594;28;45536;-65
2022/09/30 06:04:11;;;;;;;;;71.25;56.00;;;;;;;;5057893;28;45323;-65
2022/09/30 06:06:36;;;;;;;;;17.33;14.00;;;;;;;;5057143;28;45491;-65
2022/09/30 06:09:02;;;;;;;;;17.00;15.00;;;;;;;;5057910;28;45995;-64
2022/09/30 06:11:27;;;;;;;;;17.00;13.67;;;;;;;;5056992;28;45358;-65
2022/09/30 06:13:52;;;;;;;;;15.67;14.00;;;;;;;;5057910;28;45345;-65
2022/09/30 06:16:18;;;;;;;;;14.33;12.33;;;;;;;;5057424;28;45418;-65
2022/09/30 06:18:43;;;;;;;;;14.67;13.67;;;;;;;;5057661;28;45601;-65
2022/09/30 06:21:11;;;;;;;;;19.67;16.00;;;;;;;;5057730;28;45234;-65
2022/09/30 06:23:36;;;;;;;;;18.00;15.00;;;;;;;;5057729;28;45378;-65
2022/09/30 06:26:02;;;;;;;;;20.00;18.00;;;;;;;;5056634;28;45333;-65
2022/09/30 06:28:28;;;;;;;;;18.67;17.67;;;;;;;;5057794;28;46944;-65
2022/09/30 06:30:53;;;;;;;;;27.33;23.00;;;;;;;;5057728;28;45239;-65
2022/09/30 06:33:19;;;;;;;;;18.00;15.67;;;;;;;;5057676;28;45478;-65
2022/09/30 06:35:46;;;;;;;;;17.33;16.00;;;;;;;;5057358;28;45331;-65
2022/09/30 06:38:14;;;;;;;;;14.67;14.00;;;;;;;;5057566;28;46188;-65
2022/09/30 06:40:39;;;;;;;;;14.00;12.33;;;;;;;;5057577;28;45392;-65
2022/09/30 06:43:04;;;;;;;;;13.33;11.67;;;;;;;;5056279;28;45376;-65
2022/09/30 06:45:31;;;;;;;;;12.00;10.00;;;;;;;;5057928;28;45311;-65
2022/09/30 06:48:01;;;;;;;;;9.67;8.33;;;;;;;;5057743;28;45524;-65
2022/09/30 06:50:26;;;;;;;;;16.33;12.67;;;;;;;;5056499;28;45465;-67
2022/09/30 06:52:56;;;;;;;;;9.00;9.00;;;;;;;;5057922;28;45249;-66
2022/09/30 06:55:23;;;;;;;;;8.67;8.67;;;;;;;;5057452;28;45485;-65
2022/09/30 06:57:48;;;;;;;;;11.67;11.67;;;;;;;;5057094;28;46479;-65
2022/09/30 07:00:15;;;;;;;;;8.33;8.00;;;;;;;;5056087;28;45391;-66
2022/09/30 07:02:40;;;;;;;;;10.00;8.67;;;;;;;;5057448;28;45280;-65
2022/09/30 07:05:06;;;;;;;;;10.00;8.33;;;;;;;;5057523;28;45373;-65
2022/09/30 07:07:33;;;;;;;;;9.00;9.00;;;;;;;;5057152;28;46598;-65
2022/09/30 07:09:59;;;;;;;;;16.33;12.67;;;;;;;;5057333;28;45378;-66
2022/09/30 07:12:24;;;;;;;;;19.33;15.67;;;;;;;;5057648;28;45347;-65
2022/09/30 07:14:50;;;;;;;;;10.00;10.00;;;;;;;;5057324;28;45478;-65
2022/09/30 07:17:15;;;;;;;;;13.33;12.00;;;;;;;;5055869;28;45539;-65
2022/09/30 07:19:40;;;;;;;;;13.00;10.67;;;;;;;;5062774;28;45390;-66
2022/09/30 07:24:49;;;;;;;;;12.33;11.00;;;;;;;;5053452;28;45471;-65
2022/09/30 07:27:14;;;;;;;;;16.00;10.00;;;;;;;;5063982;28;45437;-66
2022/09/30 07:29:40;;;;;;;;;12.67;12.67;;;;;;;;5062865;28;46679;-65
2022/09/30 07:32:06;;;;;;;;;13.67;12.67;;;;;;;;5063253;28;45420;-66
2022/09/30 07:34:31;;;;;;;;;22.00;17.33;;;;;;;;5062485;28;45569;-66
2022/09/30 07:36:56;;;;;;;;;20.33;14.00;;;;;;;;5061917;28;46457;-66
2022/09/30 07:39:21;;;;;;;;;35.33;31.33;;;;;;;;5062992;28;45400;-66
2022/09/30 07:41:46;;;;;;;;;23.67;18.00;;;;;;;;5062243;28;45422;-66
2022/09/30 07:44:13;;;;;;;;;17.33;16.00;;;;;;;;5064095;28;45374;-66
2022/09/30 07:46:39;;;;;;;;;16.33;16.33;;;;;;;;5063266;28;45343;-66
2022/09/30 07:49:07;;;;;;;;;18.67;17.33;;;;;;;;5063255;28;45297;-67
2022/09/30 07:51:34;;;;;;;;;33.67;32.00;;;;;;;;5063695;28;45333;-66
2022/09/30 07:54:01;;;;;;;;;23.00;20.67;;;;;;;;5062439;28;45394;-66
2022/09/30 07:56:27;;;;;;;;;19.67;19.67;;;;;;;;5063584;28;45336;-66
2022/09/30 07:58:54;;;;;;;;;16.00;16.00;;;;;;;;5062099;28;45448;-66
2022/09/30 08:01:19;;;;;;;;;16.33;14.67;;;;;;;;5063197;28;45217;-66
2022/09/30 08:03:45;;;;;;;;;18.33;16.00;;;;;;;;5063365;28;45415;-66
2022/09/30 08:06:12;;;;;;;;;22.00;19.00;;;;;;;;5062787;28;45470;-66
2022/09/30 08:08:37;;;;;;;;;17.00;15.67;;;;;;;;5061780;28;45568;-66
2022/09/30 08:11:03;;;;;;;;;21.33;20.33;;;;;;;;5063223;28;45237;-67
2022/09/30 08:13:28;;;;;;;;;21.33;17.00;;;;;;;;5063681;28;45434;-66
2022/09/30 08:15:54;;;;;;;;;16.67;16.00;;;;;;;;5062844;28;45595;-67
2022/09/30 08:18:19;;;;;;;;;21.00;18.00;;;;;;;;5063056;28;45248;-67
2022/09/30 08:20:44;;;;;;;;;19.00;17.67;;;;;;;;5063386;28;45447;-66
2022/09/30 08:23:09;;;;;;;;;16.33;14.00;;;;;;;;5061273;28;45349;-67
2022/09/30 08:25:35;;;;;;;;;15.00;14.00;;;;;;;;5062588;28;45497;-66
2022/09/30 08:28:00;;;;;;;;;14.00;13.00;;;;;;;;5062761;28;45401;-66
2022/09/30 08:30:25;;;;;;;;;16.00;14.33;;;;;;;;5060755;28;45320;-66
2022/09/30 08:32:51;;;;;;;;;16.67;16.67;;;;;;;;5059876;28;45380;-66
2022/09/30 08:35:16;;;;;;;;;18.00;17.00;;;;;;;;5059527;28;46445;-67
2022/09/30 08:37:41;;;;;;;;;19.00;14.33;;;;;;;;5059655;28;45391;-66
2022/09/30 08:40:16;;;;;;;;;16.00;14.33;;;;;;;;5058641;28;45265;-66
2022/09/30 08:42:53;;;;;;;;;25.33;20.33;;;;;;;;5059347;28;45455;-66
2022/09/30 08:45:39;;;;;;;;;19.67;19.67;;;;;;;;5058600;28;45415;-66
2022/09/30 08:48:27;;;;;;;;;18.00;18.00;;;;;;;;5059012;28;45361;-66
2022/09/30 08:51:06;;;;;;;;;17.00;17.00;;;;;;;;5016896;28;45838;-66
2022/09/30 08:53:33;;;;;;;;;22.33;21.00;;;;;;;;5017237;28;45416;-66
2022/09/30 08:56:01;;;;;;;;;18.67;18.33;;;;;;;;5015984;28;45383;-66
2022/09/30 08:58:28;;;;;;;;;17.67;15.67;;;;;;;;5016350;28;45336;-66
2022/09/30 09:01:03;;;;;;;;;20.67;17.00;;;;;;;;5017083;28;45638;-67
2022/09/30 09:03:30;;;;;;;;;13.33;13.33;;;;;;;;5016800;28;45402;-66
2022/09/30 09:06:06;;;;;;;;;18.00;16.00;;;;;;;;5016365;28;46622;-67
2022/09/30 09:08:51;;;;;;;;;19.67;19.67;;;;;;;;5010450;28;45355;-66
2022/09/30 09:11:31;;;;;;;;;19.00;17.00;;;;;;;;5014026;28;45396;-66
2022/09/30 09:13:57;;;;;;;;;17.67;16.33;;;;;;;;5016907;28;45444;-66
2022/09/30 09:16:25;;;;;;;;;16.67;15.00;;;;;;;;5016419;28;46103;-67
2022/09/30 09:18:53;;;;;;;;;19.33;18.00;;;;;;;;5015458;28;45452;-68
2022/09/30 09:21:31;;;;;;;;;18.33;15.67;;;;;;;;5016742;28;45355;-67
2022/09/30 09:23:59;;;;;;;;;18.33;14.67;;;;;;;;5015022;28;45257;-66
2022/09/30 09:26:25;;;;;;;;;30.33;24.00;;;;;;;;5013660;28;45443;-66
2022/09/30 09:28:58;;;;;;;;;22.00;19.67;;;;;;;;5043685;28;45501;-66
2022/09/30 09:31:24;;;;;;;;;18.67;18.00;;;;;;;;5050200;28;45298;-66
2022/09/30 09:33:49;;;;;;;;;15.33;13.00;;;;;;;;5058670;28;45335;-66
2022/09/30 09:36:20;;;;;;;;;16.00;14.00;;;;;;;;5056385;28;45407;-66
2022/09/30 09:39:02;;;;;;;;;15.67;14.33;;;;;;;;5057964;28;45418;-66
2022/09/30 09:41:35;;;;;;;;;14.67;12.67;;;;;;;;5057063;28;45467;-66
2022/09/30 09:44:19;;;;;;;;;12.33;12.33;;;;;;;;5057835;28;45316;-66
2022/09/30 09:46:49;;;;;;;;;9.33;9.00;;;;;;;;5054754;28;47030;-66
2022/09/30 09:49:19;;;;;;;;;13.00;11.00;;;;;;;;5057232;28;45391;-66
2022/09/30 09:52:04;;;;;;;;;12.00;10.33;;;;;;;;5057830;28;45458;-66
2022/09/30 09:54:31;;;;;;;;;11.00;11.00;;;;;;;;5053018;28;46594;-66
2022/09/30 09:57:04;;;;;;;;;15.00;11.33;;;;;;;;5048347;28;47660;-66
2022/09/30 09:59:30;;;;;;;;;12.00;10.00;;;;;;;;5057782;28;45495;-67
2022/09/30 10:01:55;;;;;;;;;8.33;8.33;;;;;;;;5057497;28;45319;-67
2022/09/30 10:04:23;;;;;;;;;10.00;9.33;;;;;;;;5057967;28;45443;-66
2022/09/30 10:06:49;;;;;;;;;10.00;8.00;;;;;;;;5057979;28;46801;-66
2022/09/30 10:09:21;;;;;;;;;6.00;6.00;;;;;;;;5056508;28;45328;-66
2022/09/30 10:11:46;;;;;;;;;7.00;6.67;;;;;;;;5049711;28;45628;-66
2022/09/30 10:14:15;;;;;;;;;36.67;32.67;;;;;;;;5037829;28;45951;-66
2022/09/30 10:16:41;;;;;;;;;7.00;7.00;;;;;;;;5044247;28;45498;-66
2022/09/30 10:19:20;;;;;;;;;8.67;8.67;;;;;;;;5056835;28;45344;-67
2022/09/30 10:21:45;;;;;;;;;5.33;5.00;;;;;;;;5057080;28;45565;-67
2022/09/30 10:24:18;;;;;;;;;7.00;5.00;;;;;;;;5057288;28;45386;-67
2022/09/30 10:26:44;;;;;;;;;6.00;6.00;;;;;;;;5055989;28;46116;-67
2022/09/30 10:29:22;;;;;;;;;8.67;4.33;;;;;;;;5057021;28;45503;-67
2022/09/30 10:31:49;;;;;;;;;7.00;4.33;;;;;;;;5057326;28;45416;-67
2022/09/30 10:34:21;;;;;;;;;4.00;4.00;;;;;;;;5047341;28;45763;-67
2022/09/30 10:36:46;;;;;;;;;4.00;4.00;;;;;;;;5048905;28;45497;-67
2022/09/30 10:39:23;;;;;;;;;7.33;5.67;;;;;;;;5038060;28;45897;-67
2022/09/30 10:41:49;;;;;;;;;5.33;5.33;;;;;;;;5036909;28;45441;-67
2022/09/30 10:44:17;;;;;;;;;5.00;4.33;;;;;;;;5036667;28;45430;-67
2022/09/30 10:46:43;;;;;;;;;6.67;5.00;;;;;;;;5036553;28;46218;-67
2022/09/30 10:49:29;;;;;;;;;4.00;4.00;;;;;;;;5036686;28;45286;-67
2022/09/30 10:51:55;;;;;;;;;6.33;5.67;;;;;;;;4992640;28;45558;-67
2022/09/30 10:54:29;;;;;;;;;6.00;6.00;;;;;;;;4993763;28;45559;-67
2022/09/30 10:56:54;;;;;;;;;7.00;6.00;;;;;;;;4993503;28;46714;-67
2022/09/30 10:59:37;;;;;;;;;2.00;2.00;;;;;;;;4987750;28;45497;-67
2022/09/30 11:02:15;;;;;;;;;5.50;5.00;;;;;;;;4991113;28;45461;-66
2022/09/30 11:04:47;;;;;;;;;3.25;3.00;;;;;;;;4993572;28;45516;-66
2022/09/30 11:07:16;;;;;;;;;2.50;2.50;;;;;;;;4989419;28;47075;-66
2022/09/30 11:10:03;;;;;;;;;11.33;9.67;;;;;;;;4989450;28;45464;-66
2022/09/30 11:12:52;;;;;;;;;5.00;4.00;;;;;;;;4991829;28;45598;-66
2022/09/30 11:15:37;;;;;;;;;3.67;3.67;;;;;;;;4921178;28;45566;-66
2022/09/30 11:18:24;;;;;;;;;4.25;3.00;;;;;;;;4920027;28;45389;-66
2022/09/30 11:20:59;;;;;;;;;4.00;3.00;;;;;;;;4934253;28;45431;-66
2022/09/30 11:23:34;;;;;;;;;4.00;2.33;;;;;;;;4928182;28;45591;-66
2022/09/30 11:26:22;;;;;;;;;5.00;4.00;;;;;;;;4922745;28;45498;-66
2022/09/30 11:29:13;;;;;;;;;5.67;4.00;;;;;;;;4863602;28;45582;-66
2022/09/30 11:31:55;;;;;;;;;4.00;4.00;;;;;;;;4895320;28;45483;-66
2022/09/30 11:34:20;;;;;;;;;4.00;4.00;;;;;;;;4897550;28;45520;-66
2022/09/30 11:36:51;;;;;;;;;4.00;2.75;;;;;;;;4897415;28;45391;-66
2022/09/30 11:39:26;;;;;;;;;5.00;2.00;;;;;;;;4897058;28;45545;-66
2022/09/30 11:41:57;;;;;;;;;4.00;4.00;;;;;;;;4904608;28;45399;-66
2022/09/30 11:44:35;;;;;;;;;3.75;3.75;;;;;;;;4915006;28;45462;-66
2022/09/30 11:47:19;;;;;;;;;3.00;3.00;;;;;;;;4904626;28;45571;-66
2022/09/30 11:49:47;;;;;;;;;5.00;3.00;;;;;;;;4897282;28;46552;-66
2022/09/30 11:52:22;;;;;;;;;3.75;2.00;;;;;;;;4931765;28;45458;-66
2022/09/30 11:54:50;;;;;;;;;4.67;4.67;;;;;;;;4973631;28;45561;-66
2022/09/30 11:57:15;;;;;;;;;2.50;2.50;;;;;;;;4969731;28;45600;-66
2022/09/30 11:59:40;;;;;;;;;5.00;4.00;;;;;;;;4972957;28;45478;-66
2022/09/30 12:02:14;;;;;;;;;4.67;3.00;;;;;;;;4968511;28;45466;-66
2022/09/30 12:04:41;;;;;;;;;4.00;4.00;;;;;;;;4970366;28;45381;-66
2022/09/30 12:07:16;;;;;;;;;6.00;5.00;;;;;;;;5051888;28;45550;-66
2022/09/30 12:09:53;;;;;;;;;3.50;2.00;;;;;;;;5042934;28;46338;-66
2022/09/30 12:12:20;;;;;;;;;2.50;2.50;;;;;;;;5047938;28;45503;-66
2022/09/30 12:14:50;;;;;;;;;6.00;5.00;;;;;;;;5048940;28;45530;-66
2022/09/30 12:17:30;;;;;;;;;3.33;3.33;;;;;;;;5040588;28;45634;-66
2022/09/30 12:19:56;;;;;;;;;6.67;4.00;;;;;;;;5043959;28;46280;-67
2022/09/30 12:22:27;;;;;;;;;3.33;3.33;;;;;;;;5059172;28;45445;-66
2022/09/30 12:24:53;;;;;;;;;3.67;3.67;;;;;;;;5059807;28;45394;-66
2022/09/30 12:27:28;;;;;;;;;3.00;3.00;;;;;;;;5060228;28;45200;-67
2022/09/30 12:30:19;;;;;;;;;5.00;5.00;;;;;;;;5057974;28;45719;-67
2022/09/30 12:32:47;;;;;;;;;4.00;4.00;;;;;;;;5057890;28;45344;-66
2022/09/30 12:35:16;;;;;;;;;5.25;3.00;;;;;;;;5053215;28;45571;-66
2022/09/30 12:37:44;;;;;;;;;4.33;3.00;;;;;;;;5059681;28;45703;-66
2022/09/30 12:40:28;;;;;;;;;1.00;1.00;;;;;;;;5059425;28;45422;-67
2022/09/30 12:42:53;;;;;;;;;3.25;2.00;;;;;;;;5059651;28;45209;-67
2022/09/30 12:45:18;;;;;;;;;2.00;2.00;;;;;;;;5058909;28;45406;-67
2022/09/30 12:47:54;;;;;;;;;3.00;2.50;;;;;;;;5059432;28;45445;-67
2022/09/30 12:50:26;;;;;;;;;6.00;6.00;;;;;;;;5058224;28;45457;-67
2022/09/30 12:52:52;;;;;;;;;4.00;4.00;;;;;;;;5059348;28;45479;-67
2022/09/30 12:55:24;;;;;;;;;4.00;4.00;;;;;;;;5059326;28;45543;-67
2022/09/30 12:57:50;;;;;;;;;5.67;4.00;;;;;;;;5059135;28;45400;-67
2022/09/30 13:00:20;;;;;;;;;2.67;2.33;;;;;;;;5058838;28;46632;-67
2022/09/30 13:02:48;;;;;;;;;3.25;3.25;;;;;;;;5058548;28;45366;-67
2022/09/30 13:05:25;;;;;;;;;3.00;3.00;;;;;;;;5058777;28;45879;-67
2022/09/30 13:08:02;;;;;;;;;6.00;3.00;;;;;;;;5057339;28;45458;-67
2022/09/30 13:10:29;;;;;;;;;4.33;4.33;;;;;;;;5057609;28;47384;-68
2022/09/30 13:13:10;;;;;;;;;4.33;3.00;;;;;;;;5055338;28;45449;-67
2022/09/30 13:15:41;;;;;;;;;3.25;2.00;;;;;;;;5058807;28;45417;-67
2022/09/30 13:18:26;;;;;;;;;3.00;3.00;;;;;;;;5059070;28;45168;-67
2022/09/30 13:20:55;;;;;;;;;3.75;3.75;;;;;;;;5058545;28;47242;-67
2022/09/30 13:23:39;;;;;;;;;3.00;3.00;;;;;;;;5058262;28;45444;-67
2022/09/30 13:26:27;;;;;;;;;3.00;3.00;;;;;;;;5058818;28;45335;-67
2022/09/30 13:28:53;;;;;;;;;2.67;2.67;;;;;;;;5051885;28;45530;-67
2022/09/30 13:31:19;;;;;;;;;3.00;3.00;;;;;;;;5058424;28;46097;-67
2022/09/30 13:33:45;;;;;;;;;2.00;2.00;;;;;;;;5058682;28;45345;-67
2022/09/30 13:36:24;;;;;;;;;1.00;1.00;;;;;;;;5058804;28;45447;-67
2022/09/30 13:39:04;;;;;;;;;7.00;5.33;;;;;;;;5059116;28;45310;-67
2022/09/30 13:41:31;;;;;;;;;3.00;3.00;;;;;;;;5058673;28;46464;-67
2022/09/30 13:44:02;;;;;;;;;2.00;2.00;;;;;;;;5056459;28;45287;-67
2022/09/30 13:46:42;;;;;;;;;5.00;3.67;;;;;;;;5048465;28;45430;-67
2022/09/30 13:49:26;;;;;;;;;4.00;2.75;;;;;;;;5058711;28;45512;-67
2022/09/30 13:51:53;;;;;;;;;4.00;2.50;;;;;;;;5038169;28;46468;-67
2022/09/30 13:54:26;;;;;;;;;2.00;2.00;;;;;;;;5038346;28;45554;-67
2022/09/30 13:56:53;;;;;;;;;3.00;3.00;;;;;;;;5048424;28;45179;-67
2022/09/30 13:59:18;;;;;;;;;4.00;2.50;;;;;;;;5056130;28;45513;-66
2022/09/30 14:01:46;;;;;;;;;2.25;2.25;;;;;;;;5056908;28;46476;-67
2022/09/30 14:04:16;;;;;;;;;2.50;2.00;;;;;;;;5057279;28;45263;-66
2022/09/30 14:06:47;;;;;;;;;2.75;2.00;;;;;;;;5058284;28;45357;-66
2022/09/30 14:09:18;;;;;;;;;2.00;2.00;;;;;;;;5058657;28;45399;-67
2022/09/30 14:11:58;;;;;;;;;2.00;2.00;;;;;;;;5058145;28;46162;-66
2022/09/30 14:14:26;;;;;;;;;3.33;2.00;;;;;;;;5058316;28;45376;-66
2022/09/30 14:17:11;;;;;;;;;2.00;2.00;;;;;;;;5058221;28;45345;-66
2022/09/30 14:19:41;;;;;;;;;2.00;2.00;;;;;;;;5057354;28;45427;-66
2022/09/30 14:22:07;;;;;;;;;5.00;4.25;;;;;;;;5057388;28;45328;-66
2022/09/30 14:24:33;;;;;;;;;3.00;3.00;;;;;;;;5057572;28;45439;-66
2022/09/30 14:27:05;;;;;;;;;4.00;2.00;;;;;;;;5057579;28;45555;-66
2022/09/30 14:29:30;;;;;;;;;2.00;2.00;;;;;;;;5057625;28;45385;-66
2022/09/30 14:31:56;;;;;;;;;2.25;2.25;;;;;;;;5056716;28;45537;-67
2022/09/30 14:34:23;;;;;;;;;2.00;2.00;;;;;;;;5056579;28;45557;-67
2022/09/30 14:36:50;;;;;;;;;1.50;1.25;;;;;;;;5051560;28;45535;-66
2022/09/30 14:39:17;;;;;;;;;2.00;2.00;;;;;;;;5052773;28;45618;-66
2022/09/30 14:41:51;;;;;;;;;2.00;2.00;;;;;;;;5057599;28;46549;-66
2022/09/30 14:44:18;;;;;;;;;3.00;3.00;;;;;;;;5057934;28;45335;-66